Terminal Aerodrome Forecast
Issued by NWS

Home | Current Version | Previous Version | Text Only | Print | Product List | Glossary On
Versions: 1 2 3 4 5 6 7 8 9 10 11 12
000
FTUS46 KSGX 292300
TAFTRM
TAF
KTRM 292323Z 3000/3024 16008KT P6SM SKC
     FM300200 33011KT P6SM FEW200
     FM301400 VRB06KT P6SM FEW200=

USA.gov is the U.S. government's official web portal to all federal, state and local government web resources and services.